sensor_id;sensor_type;location;lat;lon;timestamp;pressure;altitude;pressure_sealevel;temperature;humidity
6853;BME280;3465;42.144;24.722;2023-09-07T00:00:34;147562.13;;;18.57;nan
6853;BME280;3465;42.144;24.722;2023-09-07T00:02:59;147538.19;;;18.47;nan
6853;BME280;3465;42.144;24.722;2023-09-07T00:05:25;147572.25;;;18.61;nan
6853;BME280;3465;42.144;24.722;2023-09-07T00:07:50;147564.69;;;18.58;nan
6853;BME280;3465;42.144;24.722;2023-09-07T00:10:16;147433.53;;;18.05;nan
6853;BME280;3465;42.144;24.722;2023-09-07T00:12:43;147558.34;;;18.55;nan
6853;BME280;3465;42.144;24.722;2023-09-07T00:15:09;147564.69;;;18.58;nan
6853;BME280;3465;42.144;24.722;2023-09-07T00:17:36;147540.72;;;18.48;nan
6853;BME280;3465;42.144;24.722;2023-09-07T00:20:02;147540.72;;;18.48;nan
6853;BME280;3465;42.144;24.722;2023-09-07T00:22:35;147562.13;;;18.57;nan
6853;BME280;3465;42.144;24.722;2023-09-07T00:25:01;147569.69;;;18.60;nan
6853;BME280;3465;42.144;24.722;2023-09-07T00:27:26;147562.13;;;18.57;nan
6853;BME280;3465;42.144;24.722;2023-09-07T00:29:52;147543.25;;;18.49;nan
6853;BME280;3465;42.144;24.722;2023-09-07T00:32:17;147529.34;;;18.43;nan
6853;BME280;3465;42.144;24.722;2023-09-07T00:34:42;147559.63;;;18.56;nan
6853;BME280;3465;42.144;24.722;2023-09-07T00:37:08;147549.53;;;18.51;nan
6853;BME280;3465;42.144;24.722;2023-09-07T00:39:33;147553.31;;;18.53;nan
6853;BME280;3465;42.144;24.722;2023-09-07T00:41:58;147541.97;;;18.48;nan
6853;BME280;3465;42.144;24.722;2023-09-07T00:44:24;147541.97;;;18.48;nan
6853;BME280;3465;42.144;24.722;2023-09-07T00:46:49;147483.97;;;18.25;nan
6853;BME280;3465;42.144;24.722;2023-09-07T00:49:15;147550.78;;;18.52;nan
6853;BME280;3465;42.144;24.722;2023-09-07T00:51:40;147526.84;;;18.42;nan
6853;BME280;3465;42.144;24.722;2023-09-07T00:54:06;147531.91;;;18.44;nan
6853;BME280;3465;42.144;24.722;2023-09-07T00:56:31;147521.78;;;18.40;nan
6853;BME280;3465;42.144;24.722;2023-09-07T00:58:57;147523.06;;;18.41;nan
6853;BME280;3465;42.144;24.722;2023-09-07T01:01:25;147500.34;;;18.32;nan
6853;BME280;3465;42.144;24.722;2023-09-07T01:03:51;147507.91;;;18.35;nan
6853;BME280;3465;42.144;24.722;2023-09-07T01:06:32;147502.84;;;18.33;nan
6853;BME280;3465;42.144;24.722;2023-09-07T01:09:04;147496.56;;;18.30;nan
6853;BME280;3465;42.144;24.722;2023-09-07T01:11:37;147468.78;;;18.19;nan
6853;BME280;3465;42.144;24.722;2023-09-07T01:14:02;147457.47;;;18.15;nan
6853;BME280;3465;42.144;24.722;2023-09-07T01:16:30;147451.19;;;18.12;nan
6853;BME280;3465;42.144;24.722;2023-09-07T01:18:59;147449.91;;;18.12;nan
6853;BME280;3465;42.144;24.722;2023-09-07T01:21:26;147423.47;;;18.01;nan
6853;BME280;3465;42.144;24.722;2023-09-07T01:23:53;147402.03;;;17.93;nan
6853;BME280;3465;42.144;24.722;2023-09-07T01:26:19;147381.88;;;17.85;nan
6853;BME280;3465;42.144;24.722;2023-09-07T01:28:45;147381.88;;;17.85;nan
6853;BME280;3465;42.144;24.722;2023-09-07T01:31:10;147362.97;;;17.77;nan
6853;BME280;3465;42.144;24.722;2023-09-07T01:33:36;147385.63;;;17.86;nan
6853;BME280;3465;42.144;24.722;2023-09-07T01:36:02;147365.47;;;17.78;nan
6853;BME280;3465;42.144;24.722;2023-09-07T01:38:28;147370.53;;;17.80;nan
6853;BME280;3465;42.144;24.722;2023-09-07T01:40:53;147367.97;;;17.79;nan
6853;BME280;3465;42.144;24.722;2023-09-07T01:43:19;147365.47;;;17.78;nan
6853;BME280;3465;42.144;24.722;2023-09-07T01:45:45;147350.38;;;17.72;nan
6853;BME280;3465;42.144;24.722;2023-09-07T01:48:11;147361.69;;;17.77;nan
6853;BME280;3465;42.144;24.722;2023-09-07T01:50:37;147350.38;;;17.72;nan
6853;BME280;3465;42.144;24.722;2023-09-07T01:53:03;147342.81;;;17.69;nan
6853;BME280;3465;42.144;24.722;2023-09-07T01:55:30;147287.34;;;17.47;nan
6853;BME280;3465;42.144;24.722;2023-09-07T01:57:55;147303.72;;;17.54;nan
6853;BME280;3465;42.144;24.722;2023-09-07T02:00:21;147284.84;;;17.46;nan
6853;BME280;3465;42.144;24.722;2023-09-07T02:02:46;147257.09;;;17.35;nan
6853;BME280;3465;42.144;24.722;2023-09-07T02:05:12;147236.94;;;17.27;nan
6853;BME280;3465;42.144;24.722;2023-09-07T02:07:38;147219.28;;;17.20;nan
6853;BME280;3465;42.144;24.722;2023-09-07T02:10:04;147229.41;;;17.24;nan
6853;BME280;3465;42.144;24.722;2023-09-07T02:12:30;147226.84;;;17.23;nan
6853;BME280;3465;42.144;24.722;2023-09-07T02:14:55;147176.50;;;17.03;nan
6853;BME280;3465;42.144;24.722;2023-09-07T02:17:21;147218.06;;;17.20;nan
6853;BME280;3465;42.144;24.722;2023-09-07T02:19:47;147181.53;;;17.05;nan
6853;BME280;3465;42.144;24.722;2023-09-07T02:22:12;147166.41;;;16.99;nan
6853;BME280;3465;42.144;24.722;2023-09-07T02:24:38;147176.50;;;17.03;nan
6853;BME280;3465;42.144;24.722;2023-09-07T02:27:03;147170.19;;;17.00;nan
6853;BME280;3465;42.144;24.722;2023-09-07T02:29:29;147151.31;;;16.93;nan
6853;BME280;3465;42.144;24.722;2023-09-07T02:31:55;147160.13;;;16.96;nan
6853;BME280;3465;42.144;24.722;2023-09-07T02:34:21;147054.38;;;16.54;nan
6853;BME280;3465;42.144;24.722;2023-09-07T02:36:47;147139.97;;;16.88;nan
6853;BME280;3465;42.144;24.722;2023-09-07T02:39:12;147145.03;;;16.90;nan
6853;BME280;3465;42.144;24.722;2023-09-07T02:41:37;147153.84;;;16.94;nan
6853;BME280;3465;42.144;24.722;2023-09-07T02:44:06;147152.56;;;16.93;nan
6853;BME280;3465;42.144;24.722;2023-09-07T02:46:31;147148.81;;;16.92;nan
6853;BME280;3465;42.144;24.722;2023-09-07T02:48:57;147148.81;;;16.92;nan
6853;BME280;3465;42.144;24.722;2023-09-07T02:51:26;147151.31;;;16.93;nan
6853;BME280;3465;42.144;24.722;2023-09-07T02:53:51;147137.47;;;16.87;nan
6853;BME280;3465;42.144;24.722;2023-09-07T02:56:17;147108.53;;;16.76;nan
6853;BME280;3465;42.144;24.722;2023-09-07T02:58:43;147111.00;;;16.77;nan
6853;BME280;3465;42.144;24.722;2023-09-07T03:01:08;147116.06;;;16.79;nan
6853;BME280;3465;42.144;24.722;2023-09-07T03:03:34;147108.53;;;16.76;nan
6853;BME280;3465;42.144;24.722;2023-09-07T03:06:11;147073.28;;;16.62;nan
6853;BME280;3465;42.144;24.722;2023-09-07T03:08:36;147072.00;;;16.61;nan
6853;BME280;3465;42.144;24.722;2023-09-07T03:11:06;147089.59;;;16.68;nan
6853;BME280;3465;42.144;24.722;2023-09-07T03:13:31;147079.56;;;16.64;nan
6853;BME280;3465;42.144;24.722;2023-09-07T03:15:57;147085.81;;;16.67;nan
6853;BME280;3465;42.144;24.722;2023-09-07T03:18:23;147080.81;;;16.65;nan
6853;BME280;3465;42.144;24.722;2023-09-07T03:20:50;147036.78;;;16.47;nan
6853;BME280;3465;42.144;24.722;2023-09-07T03:26:32;147058.13;;;16.56;nan
6853;BME280;3465;42.144;24.722;2023-09-07T03:28:58;147078.28;;;16.64;nan
6853;BME280;3465;42.144;24.722;2023-09-07T03:31:23;147079.56;;;16.64;nan
6853;BME280;3465;42.144;24.722;2023-09-07T03:33:49;147078.28;;;16.64;nan
6853;BME280;3465;42.144;24.722;2023-09-07T03:36:14;147073.28;;;16.62;nan
6853;BME280;3465;42.144;24.722;2023-09-07T03:38:40;147065.69;;;16.59;nan
6853;BME280;3465;42.144;24.722;2023-09-07T03:41:06;147065.69;;;16.59;nan
6853;BME280;3465;42.144;24.722;2023-09-07T03:43:31;147012.81;;;16.38;nan
6853;BME280;3465;42.144;24.722;2023-09-07T03:45:57;147043.03;;;16.50;nan
6853;BME280;3465;42.144;24.722;2023-09-07T03:48:23;147033.00;;;16.46;nan
6853;BME280;3465;42.144;24.722;2023-09-07T03:50:48;147041.78;;;16.49;nan
6853;BME280;3465;42.144;24.722;2023-09-07T03:53:13;147041.78;;;16.49;nan
6853;BME280;3465;42.144;24.722;2023-09-07T03:55:43;147045.53;;;16.51;nan
6853;BME280;3465;42.144;24.722;2023-09-07T03:58:09;147043.03;;;16.50;nan
6853;BME280;3465;42.144;24.722;2023-09-07T04:00:40;146980.09;;;16.25;nan
6853;BME280;3465;42.144;24.722;2023-09-07T04:03:07;147024.13;;;16.42;nan
6853;BME280;3465;42.144;24.722;2023-09-07T04:05:32;146990.13;;;16.29;nan
6853;BME280;3465;42.144;24.722;2023-09-07T04:07:58;147024.13;;;16.42;nan
6853;BME280;3465;42.144;24.722;2023-09-07T04:10:24;147019.09;;;16.40;nan
6853;BME280;3465;42.144;24.722;2023-09-07T04:12:49;147025.34;;;16.43;nan
6853;BME280;3465;42.144;24.722;2023-09-07T04:15:15;147035.50;;;16.47;nan
6853;BME280;3465;42.144;24.722;2023-09-07T04:17:40;147039.28;;;16.48;nan
6853;BME280;3465;42.144;24.722;2023-09-07T04:20:09;147033.00;;;16.46;nan
6853;BME280;3465;42.144;24.722;2023-09-07T04:22:36;147040.53;;;16.49;nan
6853;BME280;3465;42.144;24.722;2023-09-07T04:25:02;147058.13;;;16.56;nan
6853;BME280;3465;42.144;24.722;2023-09-07T04:27:28;147070.72;;;16.61;nan
6853;BME280;3465;42.144;24.722;2023-09-07T04:29:53;147099.69;;;16.72;nan
6853;BME280;3465;42.144;24.722;2023-09-07T04:32:19;147113.56;;;16.78;nan
6853;BME280;3465;42.144;24.722;2023-09-07T04:34:44;147126.13;;;16.83;nan
6853;BME280;3465;42.144;24.722;2023-09-07T04:37:09;147142.47;;;16.89;nan
6853;BME280;3465;42.144;24.722;2023-09-07T04:39:35;147143.75;;;16.90;nan
6853;BME280;3465;42.144;24.722;2023-09-07T04:42:00;147160.13;;;16.96;nan
6853;BME280;3465;42.144;24.722;2023-09-07T04:44:26;147157.63;;;16.95;nan
6853;BME280;3465;42.144;24.722;2023-09-07T04:46:55;147187.81;;;17.07;nan
6853;BME280;3465;42.144;24.722;2023-09-07T04:49:21;147207.97;;;17.15;nan
6853;BME280;3465;42.144;24.722;2023-09-07T04:51:46;147224.34;;;17.22;nan
6853;BME280;3465;42.144;24.722;2023-09-07T04:54:12;147254.59;;;17.34;nan
6853;BME280;3465;42.144;24.722;2023-09-07T04:56:38;147286.13;;;17.47;nan
6853;BME280;3465;42.144;24.722;2023-09-07T04:59:24;147310.06;;;17.56;nan
6853;BME280;3465;42.144;24.722;2023-09-07T05:05:15;147350.38;;;17.72;nan
6853;BME280;3465;42.144;24.722;2023-09-07T05:07:40;147359.19;;;17.76;nan
6853;BME280;3465;42.144;24.722;2023-09-07T05:10:06;147370.53;;;17.80;nan
6853;BME280;3465;42.144;24.722;2023-09-07T05:12:33;147376.81;;;17.83;nan
6853;BME280;3465;42.144;24.722;2023-09-07T05:14:59;147476.41;;;18.22;nan
6853;BME280;3465;42.144;24.722;2023-09-07T05:17:25;147772.81;;;19.40;nan
6853;BME280;3465;42.144;24.722;2023-09-07T05:19:50;148073.28;;;20.60;nan
6853;BME280;3465;42.144;24.722;2023-09-07T05:22:55;148205.94;;;21.12;nan
6853;BME280;3465;42.144;24.722;2023-09-07T05:25:16;148168.03;;;20.97;nan
6853;BME280;3465;42.144;24.722;2023-09-07T05:27:41;148111.13;;;20.75;nan
6853;BME280;3465;42.144;24.722;2023-09-07T05:30:07;148044.22;;;20.48;nan
6853;BME280;3465;42.144;24.722;2023-09-07T05:32:32;147987.41;;;20.26;nan
6853;BME280;3465;42.144;24.722;2023-09-07T05:34:58;147988.69;;;20.26;nan
6853;BME280;3465;42.144;24.722;2023-09-07T05:37:23;148280.47;;;21.42;nan
6853;BME280;3465;42.144;24.722;2023-09-07T05:39:49;148691.50;;;23.05;nan
6853;BME280;3465;42.144;24.722;2023-09-07T05:42:15;149056.19;;;24.50;nan
6853;BME280;3465;42.144;24.722;2023-09-07T05:44:40;149243.75;;;25.24;nan
6853;BME280;3465;42.144;24.722;2023-09-07T05:47:06;149238.66;;;25.22;nan
6853;BME280;3465;42.144;24.722;2023-09-07T05:49:31;149212.03;;;25.11;nan
6853;BME280;3465;42.144;24.722;2023-09-07T05:51:57;149160.09;;;24.91;nan
6853;BME280;3465;42.144;24.722;2023-09-07T05:54:22;149204.44;;;25.08;nan
6853;BME280;3465;42.144;24.722;2023-09-07T05:56:48;149446.66;;;26.04;nan
6853;BME280;3465;42.144;24.722;2023-09-07T05:59:13;149733.38;;;27.18;nan
6853;BME280;3465;42.144;24.722;2023-09-07T06:01:39;150053.41;;;28.44;nan
6853;BME280;3465;42.144;24.722;2023-09-07T06:04:05;150300.06;;;29.42;nan
6853;BME280;3465;42.144;24.722;2023-09-07T06:06:31;150419.56;;;29.89;nan
6853;BME280;3465;42.144;24.722;2023-09-07T06:08:57;150277.13;;;29.32;nan
6853;BME280;3465;42.144;24.722;2023-09-07T06:11:24;149988.66;;;28.19;nan
6853;BME280;3465;42.144;24.722;2023-09-07T06:13:49;149803.25;;;27.45;nan
6853;BME280;3465;42.144;24.722;2023-09-07T06:16:15;149902.25;;;27.84;nan
6853;BME280;3465;42.144;24.722;2023-09-07T06:18:40;150265.72;;;29.28;nan
6853;BME280;3465;42.144;24.722;2023-09-07T06:21:05;150600.22;;;30.60;nan
6853;BME280;3465;42.144;24.722;2023-09-07T06:23:31;150854.81;;;31.60;nan
6853;BME280;3465;42.144;24.722;2023-09-07T06:25:57;151040.78;;;32.34;nan
6853;BME280;3465;42.144;24.722;2023-09-07T06:28:22;151140.16;;;32.73;nan
6853;BME280;3465;42.144;24.722;2023-09-07T06:30:48;151379.84;;;33.67;nan
6853;BME280;3465;42.144;24.722;2023-09-07T06:33:13;151378.56;;;33.67;nan
6853;BME280;3465;42.144;24.722;2023-09-07T06:35:39;151065.03;;;32.43;nan
6853;BME280;3465;42.144;24.722;2023-09-07T06:38:04;150646.09;;;30.78;nan
6853;BME280;3465;42.144;24.722;2023-09-07T06:40:30;150203.38;;;29.03;nan
6853;BME280;3465;42.144;24.722;2023-09-07T06:42:55;149993.75;;;28.21;nan
6853;BME280;3465;42.144;24.722;2023-09-07T06:45:22;150024.19;;;28.33;nan
6853;BME280;3465;42.144;24.722;2023-09-07T06:47:51;150400.50;;;29.81;nan
6853;BME280;3465;42.144;24.722;2023-09-07T06:50:17;150681.69;;;30.92;nan
6853;BME280;3465;42.144;24.722;2023-09-07T06:52:42;150921.06;;;31.86;nan
6853;BME280;3465;42.144;24.722;2023-09-07T06:55:08;151197.53;;;32.95;nan
6853;BME280;3465;42.144;24.722;2023-09-07T06:57:34;151488.25;;;34.10;nan
6853;BME280;3465;42.144;24.722;2023-09-07T07:00:00;151619.66;;;34.61;nan
6853;BME280;3465;42.144;24.722;2023-09-07T07:02:25;151678.34;;;34.85;nan
6853;BME280;3465;42.144;24.722;2023-09-07T07:04:51;151800.88;;;35.33;nan
6853;BME280;3465;42.144;24.722;2023-09-07T07:07:17;151983.47;;;36.05;nan
6853;BME280;3465;42.144;24.722;2023-09-07T07:09:43;152171.25;;;36.78;nan
6853;BME280;3465;42.144;24.722;2023-09-07T07:12:08;152318.19;;;37.36;nan
6853;BME280;3465;42.144;24.722;2023-09-07T07:14:34;152254.31;;;37.11;nan
6853;BME280;3465;42.144;24.722;2023-09-07T07:16:59;152292.63;;;37.26;nan
6853;BME280;3465;42.144;24.722;2023-09-07T07:19:27;152288.81;;;37.24;nan
6853;BME280;3465;42.144;24.722;2023-09-07T07:21:53;152005.19;;;36.13;nan
6853;BME280;3465;42.144;24.722;2023-09-07T07:24:19;151550.72;;;34.34;nan
6853;BME280;3465;42.144;24.722;2023-09-07T07:26:45;150974.53;;;32.08;nan
6853;BME280;3465;42.144;24.722;2023-09-07T07:29:10;150557.00;;;30.43;nan
6853;BME280;3465;42.144;24.722;2023-09-07T07:31:36;150395.41;;;29.79;nan
6853;BME280;3465;42.144;24.722;2023-09-07T07:34:02;150204.66;;;29.04;nan
6853;BME280;3465;42.144;24.722;2023-09-07T07:36:27;150028.06;;;28.34;nan
6853;BME280;3465;42.144;24.722;2023-09-07T07:38:52;149981.03;;;28.16;nan
6853;BME280;3465;42.144;24.722;2023-09-07T07:41:18;150267.00;;;29.28;nan
6853;BME280;3465;42.144;24.722;2023-09-07T07:43:43;150465.34;;;30.07;nan
6853;BME280;3465;42.144;24.722;2023-09-07T07:46:08;150789.88;;;31.35;nan
6853;BME280;3465;42.144;24.722;2023-09-07T07:48:34;151094.31;;;32.55;nan
6853;BME280;3465;42.144;24.722;2023-09-07T07:51:03;151384.91;;;33.69;nan
6853;BME280;3465;42.144;24.722;2023-09-07T07:53:29;151393.84;;;33.73;nan
6853;BME280;3465;42.144;24.722;2023-09-07T07:55:56;151175.84;;;32.87;nan
6853;BME280;3465;42.144;24.722;2023-09-07T07:58:22;151404.06;;;33.77;nan
6853;BME280;3465;42.144;24.722;2023-09-07T08:00:47;151515.03;;;34.20;nan
6853;BME280;3465;42.144;24.722;2023-09-07T08:03:14;151481.88;;;34.07;nan
6853;BME280;3465;42.144;24.722;2023-09-07T08:05:40;151303.28;;;33.37;nan
6853;BME280;3465;42.144;24.722;2023-09-07T08:08:05;150908.28;;;31.81;nan
6853;BME280;3465;42.144;24.722;2023-09-07T08:10:34;150680.41;;;30.92;nan
6853;BME280;3465;42.144;24.722;2023-09-07T08:13:01;150500.94;;;30.21;nan
6853;BME280;3465;42.144;24.722;2023-09-07T08:15:28;150322.91;;;29.51;nan
6853;BME280;3465;42.144;24.722;2023-09-07T08:17:54;150153.88;;;28.84;nan
6853;BME280;3465;42.144;24.722;2023-09-07T08:20:20;150025.50;;;28.33;nan
6853;BME280;3465;42.144;24.722;2023-09-07T08:22:46;149955.63;;;28.05;nan
6853;BME280;3465;42.144;24.722;2023-09-07T08:25:12;149992.47;;;28.20;nan
6853;BME280;3465;42.144;24.722;2023-09-07T08:27:41;149969.63;;;28.11;nan
6853;BME280;3465;42.144;24.722;2023-09-07T08:30:15;149962.00;;;28.08;nan
6853;BME280;3465;42.144;24.722;2023-09-07T08:32:41;149880.69;;;27.76;nan
6853;BME280;3465;42.144;24.722;2023-09-07T08:35:09;149916.28;;;27.90;nan
6853;BME280;3465;42.144;24.722;2023-09-07T08:37:38;149845.16;;;27.62;nan
6853;BME280;3465;42.144;24.722;2023-09-07T08:40:04;149968.34;;;28.11;nan
6853;BME280;3465;42.144;24.722;2023-09-07T08:42:32;150205.94;;;29.04;nan
6853;BME280;3465;42.144;24.722;2023-09-07T08:45:00;150401.78;;;29.82;nan
6853;BME280;3465;42.144;24.722;2023-09-07T08:47:28;150232.66;;;29.15;nan
6853;BME280;3465;42.144;24.722;2023-09-07T08:49:57;149974.72;;;28.13;nan
6853;BME280;3465;42.144;24.722;2023-09-07T08:52:23;150028.06;;;28.34;nan
6853;BME280;3465;42.144;24.722;2023-09-07T08:54:49;150067.47;;;28.50;nan
6853;BME280;3465;42.144;24.722;2023-09-07T08:57:16;150043.28;;;28.40;nan
6853;BME280;3465;42.144;24.722;2023-09-07T08:59:42;149771.53;;;27.33;nan
6853;BME280;3465;42.144;24.722;2023-09-07T09:02:09;149807.06;;;27.47;nan
6853;BME280;3465;42.144;24.722;2023-09-07T09:04:36;149834.97;;;27.58;nan
6853;BME280;3465;42.144;24.722;2023-09-07T09:07:02;149984.84;;;28.17;nan
6853;BME280;3465;42.144;24.722;2023-09-07T09:09:29;150148.78;;;28.82;nan
6853;BME280;3465;42.144;24.722;2023-09-07T09:12:05;150343.25;;;29.59;nan
6853;BME280;3465;42.144;24.722;2023-09-07T09:14:31;150322.91;;;29.51;nan
6853;BME280;3465;42.144;24.722;2023-09-07T09:16:56;150179.25;;;28.94;nan
6853;BME280;3465;42.144;24.722;2023-09-07T09:19:30;150039.47;;;28.39;nan
6853;BME280;3465;42.144;24.722;2023-09-07T09:21:56;149968.34;;;28.11;nan
6853;BME280;3465;42.144;24.722;2023-09-07T09:24:22;149875.59;;;27.74;nan
6853;BME280;3465;42.144;24.722;2023-09-07T09:26:48;149581.13;;;26.57;nan
6853;BME280;3465;42.144;24.722;2023-09-07T09:29:13;149390.78;;;25.82;nan
6853;BME280;3465;42.144;24.722;2023-09-07T09:31:40;149262.75;;;25.31;nan
6853;BME280;3465;42.144;24.722;2023-09-07T09:34:06;149165.16;;;24.93;nan
6853;BME280;3465;42.144;24.722;2023-09-07T09:36:36;149108.16;;;24.70;nan
6853;BME280;3465;42.144;24.722;2023-09-07T09:39:02;149180.38;;;24.99;nan
6853;BME280;3465;42.144;24.722;2023-09-07T09:41:31;149342.63;;;25.63;nan
6853;BME280;3465;42.144;24.722;2023-09-07T09:43:58;149421.25;;;25.94;nan
6853;BME280;3465;42.144;24.722;2023-09-07T09:46:24;149586.16;;;26.59;nan
6853;BME280;3465;42.144;24.722;2023-09-07T09:48:50;149677.56;;;26.96;nan
6853;BME280;3465;42.144;24.722;2023-09-07T09:51:17;149862.91;;;27.69;nan
6853;BME280;3465;42.144;24.722;2023-09-07T09:53:44;149862.91;;;27.69;nan
6853;BME280;3465;42.144;24.722;2023-09-07T09:56:10;149926.47;;;27.94;nan
6853;BME280;3465;42.144;24.722;2023-09-07T09:58:36;150369.97;;;29.69;nan
6853;BME280;3465;42.144;24.722;2023-09-07T10:01:03;150768.25;;;31.26;nan
6853;BME280;3465;42.144;24.722;2023-09-07T10:03:34;150792.47;;;31.36;nan
6853;BME280;3465;42.144;24.722;2023-09-07T10:06:12;150907.03;;;31.81;nan
6853;BME280;3465;42.144;24.722;2023-09-07T10:09:02;151051.00;;;32.38;nan
6853;BME280;3465;42.144;24.722;2023-09-07T10:11:36;151192.47;;;32.93;nan
6853;BME280;3465;42.144;24.722;2023-09-07T10:14:06;151368.34;;;33.63;nan
6853;BME280;3465;42.144;24.722;2023-09-07T10:17:01;151076.47;;;32.48;nan
6853;BME280;3465;42.144;24.722;2023-09-07T10:19:53;150727.53;;;31.10;nan
6853;BME280;3465;42.144;24.722;2023-09-07T10:22:21;150399.22;;;29.81;nan
6853;BME280;3465;42.144;24.722;2023-09-07T10:25:09;150141.16;;;28.79;nan
6853;BME280;3465;42.144;24.722;2023-09-07T10:27:42;150190.72;;;28.98;nan
6853;BME280;3465;42.144;24.722;2023-09-07T10:30:11;150031.88;;;28.36;nan
6853;BME280;3465;42.144;24.722;2023-09-07T10:32:44;149974.72;;;28.13;nan
6853;BME280;3465;42.144;24.722;2023-09-07T10:35:14;150061.03;;;28.47;nan
6853;BME280;3465;42.144;24.722;2023-09-07T10:37:40;150219.94;;;29.10;nan
6853;BME280;3465;42.144;24.722;2023-09-07T10:40:06;150576.06;;;30.50;nan
6853;BME280;3465;42.144;24.722;2023-09-07T10:42:37;150984.75;;;32.12;nan
6853;BME280;3465;42.144;24.722;2023-09-07T10:45:13;151288.00;;;33.31;nan
6853;BME280;3465;42.144;24.722;2023-09-07T10:47:42;151577.53;;;34.45;nan
6853;BME280;3465;42.144;24.722;2023-09-07T10:50:11;151540.50;;;34.30;nan
6853;BME280;3465;42.144;24.722;2023-09-07T10:52:38;151274.03;;;33.25;nan
6853;BME280;3465;42.144;24.722;2023-09-07T10:55:05;151160.53;;;32.81;nan
6853;BME280;3465;42.144;24.722;2023-09-07T10:57:31;150894.31;;;31.76;nan
6853;BME280;3465;42.144;24.722;2023-09-07T10:59:56;150740.25;;;31.15;nan
6853;BME280;3465;42.144;24.722;2023-09-07T11:02:22;150347.06;;;29.60;nan
6853;BME280;3465;42.144;24.722;2023-09-07T11:04:47;150267.00;;;29.28;nan
6853;BME280;3465;42.144;24.722;2023-09-07T11:07:13;150083.97;;;28.56;nan
6853;BME280;3465;42.144;24.722;2023-09-07T11:09:42;149903.53;;;27.85;nan
6853;BME280;3465;42.144;24.722;2023-09-07T11:12:08;149937.88;;;27.98;nan
6853;BME280;3465;42.144;24.722;2023-09-07T11:14:34;150019.16;;;28.31;nan
6853;BME280;3465;42.144;24.722;2023-09-07T11:17:01;150047.09;;;28.42;nan
6853;BME280;3465;42.144;24.722;2023-09-07T11:19:32;150251.75;;;29.22;nan
6853;BME280;3465;42.144;24.722;2023-09-07T11:21:57;150368.75;;;29.69;nan
6853;BME280;3465;42.144;24.722;2023-09-07T11:24:23;150272.09;;;29.30;nan
6853;BME280;3465;42.144;24.722;2023-09-07T11:26:49;150267.00;;;29.28;nan
6853;BME280;3465;42.144;24.722;2023-09-07T11:29:18;150181.81;;;28.95;nan
6853;BME280;3465;42.144;24.722;2023-09-07T11:31:46;150188.16;;;28.97;nan
6853;BME280;3465;42.144;24.722;2023-09-07T11:34:12;150280.94;;;29.34;nan
6853;BME280;3465;42.144;24.722;2023-09-07T11:36:39;150267.00;;;29.28;nan
6853;BME280;3465;42.144;24.722;2023-09-07T11:39:05;150246.66;;;29.20;nan
6853;BME280;3465;42.144;24.722;2023-09-07T11:41:46;150211.03;;;29.06;nan
6853;BME280;3465;42.144;24.722;2023-09-07T11:44:11;150205.94;;;29.04;nan
6853;BME280;3465;42.144;24.722;2023-09-07T11:46:37;150170.38;;;28.90;nan
6853;BME280;3465;42.144;24.722;2023-09-07T11:49:03;150072.56;;;28.52;nan
6853;BME280;3465;42.144;24.722;2023-09-07T11:51:32;150109.41;;;28.66;nan
6853;BME280;3465;42.144;24.722;2023-09-07T11:53:57;150190.72;;;28.98;nan
6853;BME280;3465;42.144;24.722;2023-09-07T11:56:24;150221.22;;;29.10;nan
6853;BME280;3465;42.144;24.722;2023-09-07T11:58:49;150193.22;;;28.99;nan
6853;BME280;3465;42.144;24.722;2023-09-07T12:01:15;150273.34;;;29.31;nan
6853;BME280;3465;42.144;24.722;2023-09-07T12:03:43;150489.50;;;30.16;nan
6853;BME280;3465;42.144;24.722;2023-09-07T12:06:09;150590.03;;;30.56;nan
6853;BME280;3465;42.144;24.722;2023-09-07T12:08:36;150727.53;;;31.10;nan
6853;BME280;3465;42.144;24.722;2023-09-07T12:11:01;150730.03;;;31.11;nan
6853;BME280;3465;42.144;24.722;2023-09-07T12:13:27;150765.66;;;31.25;nan
6853;BME280;3465;42.144;24.722;2023-09-07T12:15:52;150612.94;;;30.65;nan
6853;BME280;3465;42.144;24.722;2023-09-07T12:18:17;150480.59;;;30.13;nan
6853;BME280;3465;42.144;24.722;2023-09-07T12:20:43;150441.19;;;29.97;nan
6853;BME280;3465;42.144;24.722;2023-09-07T12:23:10;150320.38;;;29.50;nan
6853;BME280;3465;42.144;24.722;2023-09-07T12:25:35;150251.75;;;29.22;nan
6853;BME280;3465;42.144;24.722;2023-09-07T12:28:02;150190.72;;;28.98;nan
6853;BME280;3465;42.144;24.722;2023-09-07T12:30:27;150197.03;;;29.01;nan
6853;BME280;3465;42.144;24.722;2023-09-07T12:32:53;150232.66;;;29.15;nan
6853;BME280;3465;42.144;24.722;2023-09-07T12:35:19;150233.94;;;29.15;nan
6853;BME280;3465;42.144;24.722;2023-09-07T12:37:58;150190.72;;;28.98;nan
6853;BME280;3465;42.144;24.722;2023-09-07T12:40:26;150191.94;;;28.99;nan
6853;BME280;3465;42.144;24.722;2023-09-07T12:42:51;150128.44;;;28.74;nan
6853;BME280;3465;42.144;24.722;2023-09-07T12:45:17;150089.06;;;28.58;nan
6853;BME280;3465;42.144;24.722;2023-09-07T12:47:42;150040.72;;;28.39;nan
6853;BME280;3465;42.144;24.722;2023-09-07T12:50:08;149989.94;;;28.19;nan
6853;BME280;3465;42.144;24.722;2023-09-07T12:52:34;149984.84;;;28.17;nan
6853;BME280;3465;42.144;24.722;2023-09-07T12:55:04;149967.09;;;28.10;nan
6853;BME280;3465;42.144;24.722;2023-09-07T12:57:30;149927.69;;;27.94;nan
6853;BME280;3465;42.144;24.722;2023-09-07T12:59:56;149934.06;;;27.97;nan
6853;BME280;3465;42.144;24.722;2023-09-07T13:02:21;149870.50;;;27.72;nan
6853;BME280;3465;42.144;24.722;2023-09-07T13:04:46;149892.09;;;27.80;nan
6853;BME280;3465;42.144;24.722;2023-09-07T13:10:13;149807.06;;;27.47;nan
6853;BME280;3465;42.144;24.722;2023-09-07T13:12:40;149823.56;;;27.53;nan
6853;BME280;3465;42.144;24.722;2023-09-07T13:15:06;149841.31;;;27.60;nan
6853;BME280;3465;42.144;24.722;2023-09-07T13:17:32;149834.97;;;27.58;nan
6853;BME280;3465;42.144;24.722;2023-09-07T13:19:57;149837.50;;;27.59;nan
6853;BME280;3465;42.144;24.722;2023-09-07T13:22:22;149808.34;;;27.47;nan
6853;BME280;3465;42.144;24.722;2023-09-07T13:24:48;149815.94;;;27.50;nan
6853;BME280;3465;42.144;24.722;2023-09-07T13:27:14;149770.25;;;27.32;nan
6853;BME280;3465;42.144;24.722;2023-09-07T13:29:40;149801.97;;;27.45;nan